Time;durP1;ratioP1;P1;durP2;ratioP2;P2;SDS_P1;SDS_P2;PMS_P1;PMS_P2;Temp;Humidity;BMP_temperature;BMP_pressure;BME280_temperature;BME280_humidity;BME280_pressure;Samples;Min_cycle;Max_cycle;Signal;HPM_P1;HPM_P2
2023/02/09 00:02:13;;;;;;;27.60;19.00;;;;;;;-4.45;100.00;97202.19;5094948;28;24792;-71
2023/02/09 00:04:40;;;;;;;25.35;18.92;;;;;;;-4.51;100.00;97202.94;5101414;28;24442;-71
2023/02/09 00:07:06;;;;;;;26.13;19.50;;;;;;;-4.47;100.00;97201.34;5092732;28;24451;-71
2023/02/09 00:09:33;;;;;;;27.30;18.55;;;;;;;-4.58;100.00;97192.69;5102300;28;24434;-71
2023/02/09 00:14:43;;;;;;;24.98;19.20;;;;;;;-4.93;100.00;97190.31;5100889;28;24522;-71
2023/02/09 00:17:11;;;;;;;26.30;19.52;;;;;;;-4.89;100.00;97192.09;5097531;28;24441;-71
2023/02/09 00:19:38;;;;;;;25.77;18.05;;;;;;;-4.95;100.00;97194.50;5106788;28;24533;-71
2023/02/09 00:22:04;;;;;;;25.05;19.23;;;;;;;-5.24;100.00;97188.84;5097454;28;25021;-71
2023/02/09 00:24:31;;;;;;;27.90;18.60;;;;;;;-5.50;100.00;97186.59;5094210;28;25002;-71
2023/02/09 00:26:57;;;;;;;27.15;18.83;;;;;;;-5.69;100.00;97187.84;5098395;28;24452;-71
2023/02/09 00:29:24;;;;;;;26.48;19.23;;;;;;;-5.70;100.00;97183.63;5097698;28;24437;-71
2023/02/09 00:31:51;;;;;;;25.02;19.05;;;;;;;-5.67;100.00;97182.84;5099604;28;24437;-70
2023/02/09 00:34:19;;;;;;;25.33;18.85;;;;;;;-5.76;100.00;97183.47;5096951;28;24445;-71
2023/02/09 00:36:46;;;;;;;20.70;17.98;;;;;;;-5.75;100.00;97184.31;5098785;28;24453;-71
2023/02/09 00:39:12;;;;;;;24.02;17.88;;;;;;;-5.80;100.00;97180.84;5093043;28;25010;-71
2023/02/09 00:44:23;;;;;;;26.45;18.23;;;;;;;-5.73;100.00;97183.53;5089794;28;24498;-70
2023/02/09 00:46:51;;;;;;;28.83;18.98;;;;;;;-5.46;100.00;97184.97;5101630;28;24461;-71
2023/02/09 00:49:18;;;;;;;25.40;18.23;;;;;;;-5.45;100.00;97177.47;5096145;28;24437;-71
2023/02/09 00:51:45;;;;;;;25.45;18.50;;;;;;;-5.45;100.00;97180.00;5087428;28;24438;-71
2023/02/09 00:54:12;;;;;;;21.75;18.20;;;;;;;-5.38;100.00;97179.31;5106731;28;24792;-71
2023/02/09 00:56:39;;;;;;;26.20;17.50;;;;;;;-5.31;100.00;97180.25;5091133;28;24430;-71
2023/02/09 00:59:05;;;;;;;20.67;16.50;;;;;;;-5.15;100.00;97178.94;5097231;28;25093;-71
2023/02/09 01:01:31;;;;;;;23.08;17.65;;;;;;;-5.02;100.00;97180.88;5093397;28;24806;-70
2023/02/09 01:03:58;;;;;;;22.20;17.00;;;;;;;-5.04;100.00;97182.53;5102702;28;24433;-71
2023/02/09 01:06:26;;;;;;;22.00;17.50;;;;;;;-5.14;100.00;97188.22;5088372;28;24446;-71
2023/02/09 01:08:52;;;;;;;22.63;17.60;;;;;;;-5.27;100.00;97183.72;5092948;28;24437;-71
2023/02/09 01:11:19;;;;;;;30.42;19.17;;;;;;;-5.30;100.00;97174.41;5091901;28;24899;-71
2023/02/09 01:13:46;;;;;;;27.30;20.65;;;;;;;-5.35;100.00;97178.50;5094354;28;24458;-71
2023/02/09 01:16:15;;;;;;;28.23;18.83;;;;;;;-5.41;100.00;97171.66;5096504;28;24528;-71
2023/02/09 01:18:43;;;;;;;24.15;17.42;;;;;;;-5.44;100.00;97175.78;5098239;28;24430;-71
2023/02/09 01:21:10;;;;;;;24.80;18.53;;;;;;;-5.23;100.00;97168.69;5098327;28;24792;-71
2023/02/09 01:23:38;;;;;;;22.20;18.02;;;;;;;-5.11;100.00;97161.34;5102202;28;24436;-71
2023/02/09 01:26:06;;;;;;;29.58;17.90;;;;;;;-5.04;100.00;97163.97;5097846;28;24811;-71
2023/02/09 01:28:33;;;;;;;25.15;18.20;;;;;;;-5.05;100.00;97157.22;5100104;28;24815;-71
2023/02/09 01:30:59;;;;;;;23.05;18.88;;;;;;;-5.28;100.00;97155.09;5099419;28;24445;-71
2023/02/09 01:33:26;;;;;;;28.85;19.88;;;;;;;-5.50;100.00;97156.28;5093666;28;24440;-70
2023/02/09 01:35:56;;;;;;;26.83;21.98;;;;;;;-5.65;100.00;97153.44;5102724;28;24445;-70
2023/02/09 01:38:23;;;;;;;28.17;21.70;;;;;;;-5.88;100.00;97153.75;5093047;28;24437;-71
2023/02/09 01:40:51;;;;;;;25.48;19.73;;;;;;;-5.97;100.00;97153.59;5104581;28;24449;-70
2023/02/09 01:43:18;;;;;;;24.33;20.53;;;;;;;-5.88;100.00;97152.91;5090693;28;24508;-71
2023/02/09 01:45:45;;;;;;;26.63;19.85;;;;;;;-5.64;100.00;97145.03;5100239;28;25042;-71
2023/02/09 01:48:14;;;;;;;23.48;18.67;;;;;;;-5.49;100.00;97149.56;5099474;28;24453;-71
2023/02/09 01:50:45;;;;;;;23.00;18.55;;;;;;;-5.58;100.00;97146.84;5090448;28;24591;-70
2023/02/09 01:53:12;;;;;;;25.85;20.83;;;;;;;-5.53;100.00;97143.59;5100694;28;24433;-71
2023/02/09 01:55:42;;;;;;;28.15;20.75;;;;;;;-5.55;100.00;97149.44;5086425;28;24439;-71
2023/02/09 01:58:15;;;;;;;25.55;20.13;;;;;;;-5.55;100.00;97150.31;5098540;28;24430;-71
2023/02/09 02:00:42;;;;;;;35.45;23.45;;;;;;;-5.60;100.00;97142.63;5090380;28;24442;-70
2023/02/09 02:03:13;;;;;;;27.92;23.48;;;;;;;-5.71;100.00;97150.75;5101347;28;24461;-71
2023/02/09 02:05:43;;;;;;;26.80;20.73;;;;;;;-5.67;100.00;97152.56;5090101;28;24465;-70
2023/02/09 02:08:16;;;;;;;27.85;19.25;;;;;;;-5.56;100.00;97151.13;5089502;28;24450;-71
2023/02/09 02:10:43;;;;;;;23.98;19.02;;;;;;;-5.51;100.00;97151.22;5097786;28;24487;-71
2023/02/09 02:13:10;;;;;;;23.48;17.30;;;;;;;-5.56;100.00;97143.56;5090347;28;24437;-70
2023/02/09 02:15:45;;;;;;;25.23;17.47;;;;;;;-5.58;100.00;97139.28;5096224;28;24442;-71
2023/02/09 02:18:25;;;;;;;23.77;17.98;;;;;;;-5.72;100.00;97136.44;5097839;28;24434;-71
2023/02/09 02:21:22;;;;;;;23.77;18.67;;;;;;;-5.95;100.00;97135.97;5099484;28;24434;-70
2023/02/09 02:24:05;;;;;;;26.35;19.75;;;;;;;-6.01;100.00;97133.28;5094790;28;24440;-71
2023/02/09 02:26:51;;;;;;;27.77;18.40;;;;;;;-5.95;100.00;97134.28;5095477;28;24440;-71
2023/02/09 02:29:37;;;;;;;29.88;18.63;;;;;;;-5.87;100.00;97139.47;5096227;28;24482;-70
2023/02/09 02:32:32;;;;;;;23.77;18.10;;;;;;;-5.85;100.00;97142.91;5089490;28;24437;-71
2023/02/09 02:35:05;;;;;;;24.93;18.73;;;;;;;-5.91;100.00;97150.31;5087625;28;24551;-70
2023/02/09 02:37:49;;;;;;;26.42;19.35;;;;;;;-5.87;100.00;97147.03;5096181;28;24430;-71
2023/02/09 02:40:26;;;;;;;24.73;18.52;;;;;;;-5.80;100.00;97145.53;5094835;28;24438;-70
2023/02/09 02:42:59;;;;;;;25.30;17.42;;;;;;;-5.72;100.00;97157.47;5096077;28;24441;-71
2023/02/09 02:45:37;;;;;;;23.13;18.50;;;;;;;-5.76;100.00;97147.28;5095417;28;25005;-70
2023/02/09 02:48:16;;;;;;;25.17;18.60;;;;;;;-5.66;100.00;97142.50;5096838;28;24461;-70
2023/02/09 02:50:48;;;;;;;24.10;18.77;;;;;;;-5.60;100.00;97149.31;5090816;28;24440;-71
2023/02/09 02:53:17;;;;;;;19.10;16.40;;;;;;;-5.57;100.00;97151.06;5093576;28;24634;-71
2023/02/09 02:55:47;;;;;;;21.00;16.67;;;;;;;-5.63;100.00;97140.03;5089385;28;24444;-71
2023/02/09 02:58:16;;;;;;;22.95;17.65;;;;;;;-5.68;100.00;97141.59;5098654;28;24421;-71
2023/02/09 03:00:47;;;;;;;21.52;17.20;;;;;;;-5.87;100.00;97144.53;5098444;28;24445;-71
2023/02/09 03:03:18;;;;;;;29.83;17.65;;;;;;;-6.09;100.00;97130.59;5098676;28;24522;-71
2023/02/09 03:05:45;;;;;;;21.65;17.85;;;;;;;-6.02;100.00;97137.47;5099607;28;24843;-71
2023/02/09 03:08:12;;;;;;;25.60;18.80;;;;;;;-5.96;100.00;97131.75;5093285;28;24453;-71
2023/02/09 03:10:40;;;;;;;23.08;18.05;;;;;;;-5.88;100.00;97132.72;5101380;28;24461;-71
2023/02/09 03:13:19;;;;;;;21.70;17.17;;;;;;;-5.97;100.00;97130.00;5092656;28;24456;-71
2023/02/09 03:15:58;;;;;;;23.35;17.52;;;;;;;-6.00;100.00;97129.97;5097390;28;25003;-71
2023/02/09 03:18:32;;;;;;;22.13;16.48;;;;;;;-5.97;100.00;97130.91;5104035;28;24436;-71
2023/02/09 03:21:06;;;;;;;23.27;16.80;;;;;;;-6.00;100.00;97133.34;5101022;28;24441;-71
2023/02/09 03:23:38;;;;;;;23.35;17.73;;;;;;;-6.10;100.00;97131.41;5099512;28;24445;-71
2023/02/09 03:26:09;;;;;;;23.80;17.60;;;;;;;-6.15;100.00;97130.47;5095301;28;24438;-71
2023/02/09 03:28:39;;;;;;;29.27;19.07;;;;;;;-6.03;100.00;97133.25;5101367;28;24460;-70
2023/02/09 03:31:07;;;;;;;21.65;17.52;;;;;;;-6.00;100.00;97125.78;5103453;28;24429;-71
2023/02/09 03:33:37;;;;;;;22.00;17.85;;;;;;;-6.01;100.00;97129.09;5088072;28;24434;-70
2023/02/09 03:36:09;;;;;;;21.58;17.23;;;;;;;-6.26;100.00;97131.88;5095887;28;24434;-70
2023/02/09 03:38:35;;;;;;;25.33;18.63;;;;;;;-6.54;100.00;97135.34;5091221;28;24459;-70
2023/02/09 03:41:02;;;;;;;24.98;18.88;;;;;;;-6.74;100.00;97133.19;5104154;28;24441;-71
2023/02/09 03:46:09;;;;;;;23.75;18.60;;;;;;;-6.74;100.00;97124.78;5096646;28;24476;-71
2023/02/09 03:48:37;;;;;;;26.83;19.75;;;;;;;-6.91;100.00;97129.34;5097437;28;24508;-70
2023/02/09 03:51:05;;;;;;;25.98;19.00;;;;;;;-7.01;100.00;97130.75;5088352;28;24966;-70
2023/02/09 03:53:33;;;;;;;25.33;18.85;;;;;;;-6.98;100.00;97123.28;5095652;28;24663;-71
2023/02/09 03:56:00;;;;;;;21.63;17.88;;;;;;;-6.78;100.00;97123.00;5082758;28;24442;-70
2023/02/09 03:58:26;;;;;;;22.35;17.70;;;;;;;-6.60;100.00;97131.88;5097192;28;24430;-71
2023/02/09 04:00:53;;;;;;;21.75;17.20;;;;;;;-6.55;100.00;97131.13;5090825;28;24449;-71
2023/02/09 04:03:19;;;;;;;23.73;17.77;;;;;;;-6.51;100.00;97130.41;5101963;28;24434;-71
2023/02/09 04:05:47;;;;;;;24.95;18.70;;;;;;;-6.68;100.00;97140.88;5091690;28;24791;-71
2023/02/09 04:08:14;;;;;;;25.53;19.60;;;;;;;-6.95;100.00;97128.41;5098531;28;25018;-71
2023/02/09 04:10:40;;;;;;;27.13;20.67;;;;;;;-7.09;100.00;97137.25;5091771;28;24442;-71
2023/02/09 04:13:06;;;;;;;27.08;18.85;;;;;;;-7.14;100.00;97139.66;5088045;28;25207;-71
2023/02/09 04:15:33;;;;;;;23.35;18.95;;;;;;;-7.11;100.00;97136.38;5089303;28;24443;-71
2023/02/09 04:17:59;;;;;;;25.13;18.43;;;;;;;-6.91;100.00;97130.19;5085270;28;24433;-71
2023/02/09 04:20:26;;;;;;;27.08;18.13;;;;;;;-6.76;100.00;97127.22;5100204;28;24532;-72
2023/02/09 04:22:54;;;;;;;28.30;17.55;;;;;;;-6.86;100.00;97136.25;5100130;28;24512;-72
2023/02/09 04:25:20;;;;;;;25.70;18.40;;;;;;;-6.98;100.00;97140.91;5101072;28;24433;-72
2023/02/09 04:27:47;;;;;;;25.77;17.33;;;;;;;-7.06;100.00;97138.19;5098804;28;24430;-71
2023/02/09 04:30:13;;;;;;;24.92;16.98;;;;;;;-6.95;100.00;97143.53;5099768;28;24436;-73
2023/02/09 04:32:40;;;;;;;25.95;18.52;;;;;;;-6.80;100.00;97139.72;5095498;28;24433;-73
2023/02/09 04:35:07;;;;;;;25.35;17.67;;;;;;;-6.74;100.00;97137.38;5086563;28;24452;-73
2023/02/09 04:37:33;;;;;;;21.00;16.33;;;;;;;-6.63;100.00;97146.06;5090032;28;24434;-72
2023/02/09 04:40:01;;;;;;;22.65;17.05;;;;;;;-6.70;100.00;97141.69;5092302;28;24437;-73
2023/02/09 04:42:27;;;;;;;25.08;17.48;;;;;;;-6.83;100.00;97153.06;5102160;28;25070;-73
2023/02/09 04:44:54;;;;;;;20.48;17.42;;;;;;;-6.90;100.00;97153.72;5092203;28;24448;-73
2023/02/09 04:47:20;;;;;;;24.55;17.63;;;;;;;-7.01;100.00;97137.47;5102989;28;24429;-72
2023/02/09 04:49:47;;;;;;;22.17;16.97;;;;;;;-7.02;100.00;97141.66;5090344;28;24527;-72
2023/02/09 04:52:13;;;;;;;22.23;17.95;;;;;;;-7.04;100.00;97139.91;5084042;28;24434;-71
2023/02/09 04:54:40;;;;;;;28.08;18.10;;;;;;;-7.01;100.00;97129.91;5092771;28;24441;-71
2023/02/09 04:59:52;;;;;;;29.63;19.42;;;;;;;-7.04;100.00;97125.66;5098061;28;24551;-71
2023/02/09 05:02:18;;;;;;;27.23;19.67;;;;;;;-7.17;100.00;97134.53;5091387;28;24433;-72
2023/02/09 05:04:44;;;;;;;25.30;19.58;;;;;;;-7.37;100.00;97136.50;5097795;28;24457;-71
2023/02/09 05:07:11;;;;;;;28.60;20.00;;;;;;;-7.42;100.00;97124.56;5095099;28;24805;-71
2023/02/09 05:09:37;;;;;;;28.65;20.20;;;;;;;-7.20;100.00;97126.88;5092380;28;24473;-71
2023/02/09 05:12:04;;;;;;;27.90;18.63;;;;;;;-7.06;100.00;97125.59;5094160;28;24442;-72
2023/02/09 05:14:33;;;;;;;22.33;18.88;;;;;;;-7.12;100.00;97120.44;5098167;28;24437;-71
2023/02/09 05:17:00;;;;;;;28.40;19.60;;;;;;;-7.45;100.00;97132.03;5081867;28;25045;-71
2023/02/09 05:19:26;;;;;;;32.00;20.77;;;;;;;-7.77;100.00;97129.44;5090527;28;24991;-71
2023/02/09 05:21:53;;;;;;;31.35;21.52;;;;;;;-8.15;100.00;97128.28;5094906;28;24835;-71
2023/02/09 05:24:19;;;;;;;29.98;21.10;;;;;;;-8.26;100.00;97129.59;5094662;28;24804;-71
2023/02/09 05:26:45;;;;;;;26.65;20.45;;;;;;;-8.03;100.00;97133.69;5089300;28;24426;-71
2023/02/09 05:29:12;;;;;;;28.90;20.85;;;;;;;-7.81;100.00;97147.75;5100018;28;24446;-71
2023/02/09 05:31:40;;;;;;;28.45;20.83;;;;;;;-7.58;100.00;97145.94;5095690;28;24433;-72
2023/02/09 05:34:06;;;;;;;27.60;20.08;;;;;;;-7.44;100.00;97143.81;5093085;28;24437;-71
2023/02/09 05:36:33;;;;;;;32.75;19.02;;;;;;;-7.30;100.00;97142.56;5089469;28;24442;-71
2023/02/09 05:38:59;;;;;;;22.75;19.10;;;;;;;-7.17;100.00;97136.19;5086566;28;24437;-71
2023/02/09 05:44:09;;;;;;;22.38;18.27;;;;;;;-7.17;100.00;97148.78;5095665;28;24574;-72
2023/02/09 05:46:36;;;;;;;27.10;18.87;;;;;;;-7.04;100.00;97149.97;5090217;28;24433;-72
2023/02/09 05:49:04;;;;;;;33.38;19.98;;;;;;;-6.98;100.00;97153.50;5096691;28;24449;-72
2023/02/09 05:51:30;;;;;;;24.70;18.58;;;;;;;-6.87;100.00;97151.28;5080904;28;24426;-71
2023/02/09 05:53:56;;;;;;;25.80;20.27;;;;;;;-6.74;100.00;97145.78;5094306;28;25081;-71
2023/02/09 05:56:23;;;;;;;23.15;18.85;;;;;;;-6.84;100.00;97142.16;5091579;28;24433;-71
2023/02/09 05:58:49;;;;;;;26.63;19.27;;;;;;;-6.99;100.00;97141.75;5097723;28;24462;-71
2023/02/09 06:01:16;;;;;;;27.17;19.85;;;;;;;-7.14;100.00;97148.88;5085344;28;24430;-71
2023/02/09 06:03:42;;;;;;;25.33;19.07;;;;;;;-7.10;100.00;97153.19;5099052;28;24992;-71
2023/02/09 06:06:10;;;;;;;29.42;19.65;;;;;;;-7.13;100.00;97151.44;5084156;28;25013;-71
2023/02/09 06:08:36;;;;;;;29.52;20.33;;;;;;;-7.17;100.00;97151.31;5092713;28;24824;-71
2023/02/09 06:11:04;;;;;;;25.27;20.25;;;;;;;-7.28;100.00;97152.66;5094407;28;24530;-71
2023/02/09 06:13:31;;;;;;;29.95;20.90;;;;;;;-7.37;100.00;97160.81;5087338;28;24432;-71
2023/02/09 06:15:58;;;;;;;25.17;19.45;;;;;;;-7.23;100.00;97159.56;5093434;28;24441;-72
2023/02/09 06:18:24;;;;;;;25.35;19.35;;;;;;;-7.13;100.00;97153.09;5092191;28;24976;-72
2023/02/09 06:20:52;;;;;;;24.65;19.38;;;;;;;-7.12;100.00;97153.16;5094773;28;24979;-71
2023/02/09 06:23:20;;;;;;;26.87;19.90;;;;;;;-7.32;100.00;97167.66;5091964;28;24444;-71
2023/02/09 06:25:51;;;;;;;26.05;20.38;;;;;;;-7.56;100.00;97170.34;5096484;28;21400;-72
2023/02/09 06:28:18;;;;;;;33.25;21.70;;;;;;;-7.62;100.00;97169.28;5100187;28;24503;-71
2023/02/09 06:30:49;;;;;;;24.10;20.30;;;;;;;-7.45;100.00;97173.19;5096340;28;24425;-71
2023/02/09 06:33:15;;;;;;;26.58;19.77;;;;;;;-7.31;100.00;97173.56;5099676;28;24437;-71
2023/02/09 06:35:42;;;;;;;27.67;19.50;;;;;;;-7.19;100.00;97170.53;5103846;28;24432;-72
2023/02/09 06:38:08;;;;;;;21.75;17.75;;;;;;;-7.18;100.00;97179.81;5092946;28;24433;-71
2023/02/09 06:40:36;;;;;;;28.02;17.48;;;;;;;-7.35;100.00;97180.16;5102179;28;24429;-71
2023/02/09 06:43:02;;;;;;;22.55;17.83;;;;;;;-7.36;100.00;97177.63;5099891;28;25121;-71
2023/02/09 06:45:29;;;;;;;23.65;17.85;;;;;;;-7.43;100.00;97185.78;5084850;28;24842;-71
2023/02/09 06:47:55;;;;;;;23.30;17.85;;;;;;;-7.48;100.00;97185.66;5096846;28;24446;-71
2023/02/09 06:50:22;;;;;;;25.97;18.27;;;;;;;-7.45;100.00;97192.44;5084749;28;24540;-71
2023/02/09 06:52:48;;;;;;;26.30;19.48;;;;;;;-7.40;100.00;97196.81;5096317;28;24994;-72
2023/02/09 06:55:15;;;;;;;23.20;17.23;;;;;;;-7.40;100.00;97193.44;5093442;28;25118;-72
2023/02/09 06:57:43;;;;;;;28.70;20.67;;;;;;;-7.50;100.00;97191.44;5103443;28;24544;-72
2023/02/09 07:00:11;;;;;;;30.52;19.02;;;;;;;-7.37;100.00;97196.06;5095927;28;25015;-72
2023/02/09 07:02:38;;;;;;;26.17;18.92;;;;;;;-7.29;100.00;97192.09;5104961;28;24426;-72
2023/02/09 07:05:04;;;;;;;22.73;18.92;;;;;;;-7.32;100.00;97194.50;5101975;28;24490;-72
2023/02/09 07:07:31;;;;;;;27.55;19.13;;;;;;;-7.40;100.00;97199.31;5088376;28;24794;-72
2023/02/09 07:09:57;;;;;;;28.50;18.23;;;;;;;-7.34;100.00;97193.59;5097608;28;24888;-72
2023/02/09 07:12:24;;;;;;;25.65;20.05;;;;;;;-7.28;100.00;97203.00;5093398;28;24434;-72
2023/02/09 07:14:52;;;;;;;28.33;20.42;;;;;;;-7.31;100.00;97196.22;5094701;28;24453;-70
2023/02/09 07:17:18;;;;;;;33.00;20.67;;;;;;;-7.18;100.00;97205.84;5096121;28;24433;-71
2023/02/09 07:19:45;;;;;;;24.83;20.45;;;;;;;-7.11;100.00;97199.31;5094938;28;24430;-70
2023/02/09 07:22:11;;;;;;;31.92;20.88;;;;;;;-7.00;100.00;97197.13;5096838;28;24521;-72
2023/02/09 07:24:38;;;;;;;25.95;20.55;;;;;;;-6.95;100.00;97201.44;5099287;28;24819;-72
2023/02/09 07:27:04;;;;;;;32.20;20.10;;;;;;;-6.85;100.00;97205.94;5101219;28;24440;-72
2023/02/09 07:29:32;;;;;;;27.63;20.30;;;;;;;-6.70;100.00;97217.25;5087723;28;24804;-72
2023/02/09 07:32:00;;;;;;;28.38;20.63;;;;;;;-6.50;100.00;97215.25;5103821;28;24430;-72
2023/02/09 07:34:26;;;;;;;28.37;20.27;;;;;;;-6.33;100.00;97209.00;5092805;28;25026;-71
2023/02/09 07:36:52;;;;;;;31.13;20.73;;;;;;;-6.11;100.00;97215.47;5098118;28;24427;-71
2023/02/09 07:39:19;;;;;;;24.77;20.23;;;;;;;-5.90;100.00;97210.88;5102758;28;24429;-72
2023/02/09 07:41:45;;;;;;;28.17;21.63;;;;;;;-5.67;100.00;97208.94;5096145;28;24438;-72
2023/02/09 07:44:12;;;;;;;27.23;20.37;;;;;;;-5.46;100.00;97222.84;5102589;28;24442;-72
2023/02/09 07:46:38;;;;;;;29.75;21.50;;;;;;;-5.33;100.00;97219.78;5097544;28;24648;-72
2023/02/09 07:49:06;;;;;;;27.15;20.48;;;;;;;-5.51;100.00;97219.38;5099580;28;24452;-72
2023/02/09 07:51:32;;;;;;;28.77;21.30;;;;;;;-5.39;100.00;97219.66;5087748;28;24422;-72
2023/02/09 07:54:00;;;;;;;26.15;21.20;;;;;;;-5.55;100.00;97212.56;5105423;28;24433;-72
2023/02/09 07:56:27;;;;;;;29.45;21.48;;;;;;;-5.28;100.00;97212.31;5094289;28;24426;-71
2023/02/09 07:58:54;;;;;;;28.52;22.75;;;;;;;-5.11;100.00;97219.44;5099030;28;24435;-72
2023/02/09 08:01:21;;;;;;;30.67;22.55;;;;;;;-5.11;100.00;97216.91;5089501;28;24430;-72
2023/02/09 08:03:49;;;;;;;31.15;21.17;;;;;;;-4.82;100.00;97221.75;5102093;28;24443;-72
2023/02/09 08:06:22;;;;;;;29.15;22.60;;;;;;;-4.76;100.00;97226.03;5091577;28;24434;-72
2023/02/09 08:08:50;;;;;;;33.40;24.05;;;;;;;-4.98;100.00;97225.59;5090416;28;24431;-72
2023/02/09 08:11:20;;;;;;;35.40;24.50;;;;;;;-5.04;100.00;97232.19;5093634;28;24433;-71
2023/02/09 08:13:47;;;;;;;39.58;27.67;;;;;;;-4.74;100.00;97226.94;5094579;28;24437;-72
2023/02/09 08:16:17;;;;;;;35.58;25.38;;;;;;;-4.77;100.00;97226.88;5090398;28;24469;-72
2023/02/09 08:18:47;;;;;;;31.95;23.85;;;;;;;-4.78;100.00;97226.03;5097298;28;24441;-72
2023/02/09 08:21:18;;;;;;;33.75;23.98;;;;;;;-4.80;100.00;97236.91;5096090;28;24484;-72
2023/02/09 08:23:48;;;;;;;37.00;23.05;;;;;;;-4.30;100.00;97229.44;5097198;28;24428;-72
2023/02/09 08:26:15;;;;;;;30.60;23.48;;;;;;;-4.20;100.00;97239.78;5094003;28;24964;-72
2023/02/09 08:28:43;;;;;;;34.93;24.83;;;;;;;-4.41;100.00;97232.66;5085239;28;24484;-72
2023/02/09 08:31:09;;;;;;;32.78;24.20;;;;;;;-4.62;100.00;97234.75;5096044;28;24485;-72
2023/02/09 08:33:36;;;;;;;34.95;26.25;;;;;;;-4.68;100.00;97227.03;5082784;28;24805;-72
2023/02/09 08:36:03;;;;;;;28.40;22.80;;;;;;;-4.67;100.00;97226.25;5103810;28;24991;-72
2023/02/09 08:38:30;;;;;;;34.28;24.05;;;;;;;-4.65;100.00;97234.69;5093069;28;24800;-72
2023/02/09 08:40:57;;;;;;;30.40;23.58;;;;;;;-4.85;100.00;97231.78;5103592;28;24438;-71
2023/02/09 08:43:23;;;;;;;37.72;23.80;;;;;;;-4.72;100.00;97232.88;5095694;28;24434;-72
2023/02/09 08:45:51;;;;;;;33.78;23.95;;;;;;;-4.56;100.00;97223.91;5102364;28;24433;-72
2023/02/09 08:48:17;;;;;;;32.30;23.33;;;;;;;-4.01;100.00;97222.38;5094188;28;24435;-69
2023/02/09 08:50:44;;;;;;;31.10;24.70;;;;;;;-3.73;100.00;97226.25;5085951;28;24461;-70
2023/02/09 08:53:10;;;;;;;30.30;23.38;;;;;;;-4.00;100.00;97227.50;5100368;28;24437;-71
2023/02/09 08:55:38;;;;;;;33.40;24.08;;;;;;;-3.47;100.00;97222.44;5085346;28;24466;-71
2023/02/09 08:58:06;;;;;;;30.38;25.08;;;;;;;-3.02;100.00;97228.16;5096530;28;24461;-71
2023/02/09 09:00:32;;;;;;;30.38;24.48;;;;;;;-2.71;100.00;97227.72;5090661;28;24422;-72
2023/02/09 09:03:04;;;;;;;32.90;24.75;;;;;;;-2.43;100.00;97217.91;5091853;28;24434;-71
2023/02/09 09:05:30;;;;;;;35.55;24.17;;;;;;;-2.22;95.84;97228.28;5090495;28;24437;-71
2023/02/09 09:07:57;;;;;;;29.30;24.27;;;;;;;-2.48;97.69;97219.53;5101209;28;24437;-71
2023/02/09 09:10:23;;;;;;;33.67;25.02;;;;;;;-2.76;100.00;97231.88;5097910;28;24450;-71
2023/02/09 09:12:52;;;;;;;33.45;24.90;;;;;;;-2.80;100.00;97227.59;5098789;28;24972;-71
2023/02/09 09:15:19;;;;;;;28.55;23.35;;;;;;;-2.84;100.00;97232.63;5098459;28;24807;-71
2023/02/09 09:17:46;;;;;;;34.28;24.80;;;;;;;-2.79;100.00;97233.50;5091271;28;24453;-71
2023/02/09 09:20:13;;;;;;;39.25;24.60;;;;;;;-3.00;100.00;97240.03;5102372;28;24433;-71
2023/02/09 09:22:39;;;;;;;33.00;25.70;;;;;;;-2.41;100.00;97235.66;5096155;28;24828;-71
2023/02/09 09:25:07;;;;;;;27.23;23.05;;;;;;;-2.00;99.23;97238.66;5090034;28;24826;-71
2023/02/09 09:27:34;;;;;;;28.13;23.95;;;;;;;-1.54;97.71;97233.97;5098168;28;25022;-71
2023/02/09 09:30:04;;;;;;;29.83;24.15;;;;;;;-1.46;95.82;97230.66;5086942;28;24457;-71
2023/02/09 09:32:31;;;;;;;34.70;24.58;;;;;;;-1.18;90.77;97233.41;5100984;28;24433;-70
2023/02/09 09:34:59;;;;;;;33.47;24.20;;;;;;;-1.66;93.53;97238.97;5097595;28;24434;-71
2023/02/09 09:37:26;;;;;;;32.58;24.23;;;;;;;-2.07;96.45;97241.97;5101804;28;24429;-71
2023/02/09 09:39:53;;;;;;;32.75;23.88;;;;;;;-1.95;96.25;97247.16;5089466;28;24433;-71
2023/02/09 09:42:24;;;;;;;32.80;24.88;;;;;;;-1.89;96.15;97252.31;5097581;28;24433;-71
2023/02/09 09:44:50;;;;;;;34.83;23.88;;;;;;;-1.84;96.32;97248.13;5090931;28;24441;-71
2023/02/09 09:47:26;;;;;;;31.65;25.02;;;;;;;-1.27;96.52;97251.97;5098509;28;24426;-71
2023/02/09 09:49:52;;;;;;;32.97;24.87;;;;;;;-1.01;93.58;97259.78;5090088;28;24457;-71
2023/02/09 09:52:26;;;;;;;31.20;23.23;;;;;;;-1.36;92.99;97259.53;5094953;28;24441;-71
2023/02/09 09:54:53;;;;;;;30.60;23.27;;;;;;;-0.96;93.75;97262.38;5090901;28;24437;-71
2023/02/09 09:57:24;;;;;;;31.30;23.45;;;;;;;-1.05;90.25;97259.75;5092049;28;24434;-71
2023/02/09 09:59:52;;;;;;;36.95;24.63;;;;;;;-1.14;92.27;97264.78;5095973;28;24430;-71
2023/02/09 10:02:25;;;;;;;31.15;22.92;;;;;;;-1.20;93.09;97270.66;5091256;28;24418;-71
2023/02/09 10:04:51;;;;;;;40.35;27.48;;;;;;;-1.33;92.43;97264.66;5096594;28;24438;-71
2023/02/09 10:07:20;;;;;;;25.17;22.17;;;;;;;-1.19;91.91;97263.88;5082155;28;24426;-71
2023/02/09 10:09:51;;;;;;;39.22;24.45;;;;;;;-1.34;93.76;97268.00;5094575;28;24454;-71
2023/02/09 10:12:30;;;;;;;31.13;23.17;;;;;;;-1.22;93.29;97264.75;5086757;28;24981;-71
2023/02/09 10:14:56;;;;;;;31.90;23.63;;;;;;;-1.38;93.42;97271.38;5105758;28;24507;-71
2023/02/09 10:17:24;;;;;;;33.88;24.08;;;;;;;-1.30;94.71;97267.22;5093644;28;24781;-71
2023/02/09 10:20:01;;;;;;;34.43;23.80;;;;;;;-0.94;95.32;97268.31;5106765;28;24430;-71
2023/02/09 10:22:28;;;;;;;32.33;24.67;;;;;;;-0.46;95.66;97255.84;5091752;28;24441;-71
2023/02/09 10:24:54;;;;;;;29.13;24.20;;;;;;;-0.12;90.73;97259.34;5092913;28;25014;-71
2023/02/09 10:27:27;;;;;;;32.22;23.38;;;;;;;-0.31;89.76;97255.91;5096037;28;24436;-71
2023/02/09 10:29:55;;;;;;;34.63;23.67;;;;;;;-0.35;89.15;97257.56;5100360;28;24461;-71
2023/02/09 10:32:28;;;;;;;36.90;25.08;;;;;;;-0.02;88.21;97256.84;5099476;28;24430;-71
2023/02/09 10:34:56;;;;;;;31.00;23.75;;;;;;;0.13;88.95;97253.47;5091550;28;24434;-71
2023/02/09 10:37:29;;;;;;;26.20;21.43;;;;;;;0.67;83.03;97258.63;5100343;28;24426;-71
2023/02/09 10:40:14;;;;;;;28.27;22.47;;;;;;;0.61;81.72;97256.91;5092245;28;24495;-71
2023/02/09 10:42:43;;;;;;;28.25;21.88;;;;;;;0.33;79.77;97250.94;5103740;28;24790;-71
2023/02/09 10:45:19;;;;;;;26.20;20.95;;;;;;;0.30;81.14;97247.53;5096309;28;24843;-71
2023/02/09 10:47:58;;;;;;;30.80;21.75;;;;;;;0.46;83.30;97256.91;5101134;28;24433;-71
2023/02/09 10:50:25;;;;;;;27.15;22.42;;;;;;;0.32;81.84;97245.84;5085966;28;24536;-71
2023/02/09 10:52:58;;;;;;;29.25;20.75;;;;;;;0.64;83.24;97250.97;5099424;28;24422;-71
2023/02/09 10:55:28;;;;;;;30.13;21.97;;;;;;;1.13;78.88;97250.91;5086949;28;24443;-70
2023/02/09 10:58:06;;;;;;;25.52;20.60;;;;;;;0.90;78.66;97240.75;5099958;28;24430;-71
2023/02/09 11:00:38;;;;;;;26.45;20.20;;;;;;;0.89;79.23;97246.69;5087791;28;24423;-71
2023/02/09 11:03:15;;;;;;;28.48;20.52;;;;;;;1.18;75.86;97246.66;5094906;28;24457;-71
2023/02/09 11:05:45;;;;;;;25.25;19.92;;;;;;;0.78;75.61;97243.28;5091052;28;24775;-71
2023/02/09 11:08:17;;;;;;;30.48;20.73;;;;;;;0.99;78.88;97237.34;5091514;28;24580;-71
2023/02/09 11:10:55;;;;;;;26.50;20.80;;;;;;;1.38;75.64;97238.94;5092415;28;24450;-71
2023/02/09 11:13:23;;;;;;;33.40;19.50;;;;;;;1.53;73.26;97235.50;5094445;28;24429;-71
2023/02/09 11:16:18;;;;;;;28.63;21.10;;;;;;;1.66;73.25;97225.19;5094157;28;24987;-71
2023/02/09 11:18:56;;;;;;;26.17;19.83;;;;;;;2.01;71.45;97224.19;5097868;28;24425;-72
2023/02/09 11:21:32;;;;;;;23.13;19.27;;;;;;;1.43;70.51;97222.75;5095740;28;24498;-71
2023/02/09 11:24:06;;;;;;;21.13;17.80;;;;;;;1.33;71.67;97230.44;5094741;28;25048;-71
2023/02/09 11:26:41;;;;;;;20.27;18.02;;;;;;;1.50;71.06;97213.38;5096026;28;24816;-71
2023/02/09 11:29:20;;;;;;;23.80;19.17;;;;;;;1.31;71.61;97217.69;5095833;28;24426;-72
2023/02/09 11:32:05;;;;;;;23.33;18.23;;;;;;;1.53;71.53;97215.06;5094045;28;24454;-72
2023/02/09 11:34:52;;;;;;;28.75;18.45;;;;;;;1.58;71.82;97211.63;5090695;28;24437;-72